Time;durP1;ratioP1;P1;durP2;ratioP2;P2;SDS_P1;SDS_P2;PMS_P1;PMS_P2;Temp;Humidity;BMP_temperature;BMP_pressure;BME280_temperature;BME280_humidity;BME280_pressure;Samples;Min_cycle;Max_cycle;Signal;HPM_P1;HPM_P2
2022/06/21 00:00:27;;;;;;;2.20;1.70;;;19.40;55.60;;;-142.21;73.29;112049.66;5052970;28;20194;-75
2022/06/21 00:03:13;;;;;;;2.87;1.80;;;19.40;55.70;;;-142.21;73.44;112049.66;5058597;28;20442;-76
2022/06/21 00:05:45;;;;;;;1.50;1.40;;;19.40;55.80;;;-142.21;73.90;112049.66;5071342;28;20197;-75
2022/06/21 00:08:16;;;;;;;1.97;1.67;;;19.40;55.90;;;-142.21;74.19;112049.66;5062360;28;20216;-76
2022/06/21 00:10:45;;;;;;;4.73;1.77;;;19.30;55.90;;;-142.21;74.48;112049.66;5061783;28;20197;-75
2022/06/21 00:13:20;;;;;;;2.17;1.40;;;19.30;55.90;;;-142.21;74.69;112049.66;5056126;28;20225;-75
2022/06/21 00:15:56;;;;;;;2.40;1.50;;;19.30;56.00;;;-142.21;75.32;112049.66;5059721;28;20200;-76
2022/06/21 00:18:26;;;;;;;1.80;1.60;;;19.20;56.00;;;-142.21;75.17;112049.66;5055337;28;20193;-75
2022/06/21 00:20:57;;;;;;;2.23;1.50;;;19.20;56.10;;;-142.21;75.20;112049.66;5072274;28;20445;-75
2022/06/21 00:23:28;;;;;;;1.47;1.30;;;19.10;56.10;;;-142.21;75.46;112049.66;5066048;28;20523;-75
2022/06/21 00:25:59;;;;;;;1.70;1.60;;;19.10;56.30;;;-142.21;75.14;112049.66;5052341;28;20208;-75
2022/06/21 00:28:27;;;;;;;2.57;1.67;;;19.00;56.10;;;-142.21;75.67;112049.66;5052420;28;20194;-75
2022/06/21 00:30:59;;;;;;;1.87;1.20;;;19.00;56.30;;;-142.21;75.44;112049.66;5060324;28;20814;-75
2022/06/21 00:33:33;;;;;;;2.60;1.60;;;19.00;56.40;;;-142.21;75.98;112049.66;5071281;28;20832;-75
2022/06/21 00:36:11;;;;;;;1.90;1.70;;;19.00;56.60;;;-142.21;76.50;112049.66;5076547;28;20192;-74
2022/06/21 00:38:38;;;;;;;2.20;1.53;;;19.00;56.70;;;-142.21;77.03;112049.66;5064156;28;20456;-75
2022/06/21 00:41:11;;;;;;;1.80;1.50;;;19.00;56.70;;;-142.21;76.42;112049.66;5064547;28;20193;-75
2022/06/21 00:43:45;;;;;;;2.00;1.70;;;19.00;57.30;;;-142.21;76.71;112049.66;5075170;28;20485;-75
2022/06/21 00:46:36;;;;;;;2.23;1.90;;;18.90;56.60;;;-142.21;76.70;112049.66;5072978;28;20448;-76
2022/06/21 00:49:07;;;;;;;1.47;1.30;;;18.90;56.90;;;-142.21;77.01;112049.66;5060096;28;20201;-75
2022/06/21 00:51:41;;;;;;;2.40;1.83;;;18.90;56.60;;;-142.21;77.14;112049.66;5072429;28;20199;-76
2022/06/21 00:54:22;;;;;;;2.03;1.50;;;18.90;56.60;;;-142.21;77.38;112049.66;5063966;28;20478;-75
2022/06/21 00:56:58;;;;;;;1.73;1.63;;;18.80;56.60;;;-142.21;77.06;112049.66;5058944;28;20200;-75
2022/06/21 00:59:30;;;;;;;2.33;1.63;;;18.70;56.50;;;-142.21;76.93;112049.66;5068101;28;20536;-75
2022/06/21 01:02:02;;;;;;;1.67;1.57;;;18.70;56.70;;;-142.21;77.06;112049.66;5059876;28;20439;-75
2022/06/21 01:04:37;;;;;;;1.77;1.57;;;18.60;56.60;;;-142.21;77.69;112049.66;5077823;28;20446;-75
2022/06/21 01:07:11;;;;;;;2.90;1.57;;;18.60;57.10;;;-142.21;78.06;112049.66;5072223;28;20607;-76
2022/06/21 01:09:47;;;;;;;1.50;1.40;;;18.60;57.20;;;-142.21;78.29;112049.66;5074275;28;20462;-75
2022/06/21 01:12:22;;;;;;;1.73;1.60;;;18.60;57.20;;;-142.21;77.46;112049.66;5025773;28;20452;-75
2022/06/21 01:14:57;;;;;;;3.33;1.53;;;18.50;56.90;;;-142.21;77.56;112049.66;5074133;28;20849;-75
2022/06/21 01:17:27;;;;;;;2.53;1.40;;;18.60;57.10;;;-142.21;77.70;112049.66;5078374;28;20463;-75
2022/06/21 01:20:02;;;;;;;1.60;1.50;;;18.50;57.10;;;-142.21;78.48;112049.66;5075602;28;20954;-75
2022/06/21 01:22:44;;;;;;;1.70;1.43;;;18.50;57.30;;;-142.21;78.00;112049.66;5078401;28;20427;-75
2022/06/21 01:25:35;;;;;;;1.50;1.23;;;18.50;57.30;;;-142.21;77.95;112049.66;5060635;28;20436;-75
2022/06/21 01:28:06;;;;;;;2.10;1.50;;;18.60;57.40;;;-142.21;78.41;112049.66;5060095;28;20773;-75
2022/06/21 01:30:35;;;;;;;1.70;1.60;;;18.60;57.40;;;-142.21;78.65;112049.66;5058550;28;20477;-75
2022/06/21 01:33:07;;;;;;;1.60;1.50;;;18.50;57.40;;;-142.21;78.83;112049.66;5060122;28;20479;-75
2022/06/21 01:35:41;;;;;;;1.80;1.70;;;18.50;57.30;;;-142.21;78.81;112049.66;5078601;28;20963;-76
2022/06/21 01:38:17;;;;;;;2.73;1.60;;;18.50;57.90;;;-142.21;79.09;112049.66;5076152;28;20460;-75
2022/06/21 01:40:54;;;;;;;1.53;1.30;;;18.40;57.00;;;-142.21;79.95;112049.66;5058024;28;20432;-76
2022/06/21 01:43:29;;;;;;;1.53;1.43;;;18.40;57.20;;;-142.21;79.62;112049.66;5067232;28;20489;-75
2022/06/21 01:46:03;;;;;;;1.73;1.60;;;18.30;57.30;;;-142.21;79.33;112049.66;5077530;28;20919;-75
2022/06/21 01:48:36;;;;;;;2.13;1.70;;;18.20;57.40;;;-142.21;78.94;112049.66;5080789;28;20438;-75
2022/06/21 01:51:08;;;;;;;2.37;1.83;;;18.20;57.40;;;-142.21;79.47;112049.66;5050740;28;20870;-77
2022/06/21 01:53:37;;;;;;;2.60;1.60;;;18.20;57.60;;;-142.21;80.02;112049.66;5030180;28;20880;-75
2022/06/21 01:56:12;;;;;;;2.50;1.67;;;18.10;57.60;;;-142.21;80.21;112049.66;5044358;28;20445;-75
2022/06/21 01:58:49;;;;;;;1.30;1.20;;;18.10;57.70;;;-142.21;80.25;112049.66;5083225;28;20435;-75
2022/06/21 02:01:22;;;;;;;1.93;1.80;;;18.10;57.80;;;-142.21;81.00;112049.66;5067642;28;20785;-75
2022/06/21 02:03:54;;;;;;;1.93;1.80;;;18.10;57.90;;;-142.21;81.16;112049.66;5062952;28;20785;-75
2022/06/21 02:06:27;;;;;;;1.90;1.70;;;18.10;58.00;;;-142.21;81.63;112049.66;5073917;28;20533;-76
2022/06/21 02:09:03;;;;;;;1.60;1.50;;;18.00;58.10;;;-142.21;81.66;112049.66;5039849;28;20431;-75
2022/06/21 02:11:39;;;;;;;1.67;1.57;;;18.00;58.20;;;-142.21;81.45;112049.66;5054938;28;20515;-75
2022/06/21 02:14:29;;;;;;;1.50;1.40;;;18.00;58.20;;;-142.21;81.14;112049.66;5058592;28;20468;-76
2022/06/21 02:17:07;;;;;;;1.57;1.47;;;18.00;58.10;;;-142.21;80.99;112049.66;5064436;28;20446;-76
2022/06/21 02:19:42;;;;;;;2.80;1.40;;;17.90;58.00;;;-142.21;81.02;112049.66;5071689;28;20465;-75
2022/06/21 02:22:17;;;;;;;2.00;1.20;;;17.90;58.00;;;-142.21;81.47;112049.66;5055297;28;20443;-75
2022/06/21 02:24:44;;;;;;;1.60;1.50;;;17.90;58.20;;;-142.21;81.97;112049.66;5065877;28;20438;-75
2022/06/21 02:27:18;;;;;;;1.60;1.20;;;17.90;58.30;;;-142.21;81.31;112049.66;5054825;28;20440;-74
2022/06/21 02:29:52;;;;;;;1.63;1.53;;;17.80;58.20;;;-142.21;81.34;112049.66;5053824;28;20480;-75
2022/06/21 02:32:27;;;;;;;2.37;1.40;;;17.90;58.30;;;-142.21;82.02;112049.66;5038190;28;20445;-75
2022/06/21 02:35:04;;;;;;;1.40;1.30;;;17.90;58.40;;;-142.21;81.88;112049.66;5070232;28;20548;-75
2022/06/21 02:37:32;;;;;;;1.83;1.43;;;17.90;58.30;;;-142.21;81.61;112049.66;5054547;28;20939;-76
2022/06/21 02:40:03;;;;;;;3.00;1.80;;;17.90;58.20;;;-142.21;82.06;112049.66;5066082;28;20750;-75
2022/06/21 02:42:34;;;;;;;1.60;1.43;;;17.80;58.10;;;-142.21;82.16;112049.66;5054261;28;20810;-75
2022/06/21 02:45:22;;;;;;;2.27;1.73;;;17.80;58.00;;;-142.21;82.60;112049.66;5053514;28;20456;-76
2022/06/21 02:47:50;;;;;;;2.37;1.70;;;17.70;58.10;;;-142.21;82.87;112049.66;5044251;28;20534;-74
2022/06/21 02:50:40;;;;;;;3.03;1.43;;;17.60;58.20;;;-142.21;83.91;112049.66;5061074;28;20452;-75
2022/06/21 02:53:19;;;;;;;2.87;1.67;;;17.60;58.90;;;-142.21;84.34;112049.66;5072287;28;20511;-75
2022/06/21 02:55:54;;;;;;;2.07;1.57;;;17.50;58.90;;;-142.21;84.77;112049.66;5032405;28;20454;-75
2022/06/21 02:58:30;;;;;;;1.73;1.33;;;17.50;59.10;;;-142.21;84.78;112049.66;5056622;28;20431;-75
2022/06/21 03:01:03;;;;;;;1.80;1.70;;;17.40;59.10;;;-142.21;85.38;112049.66;5073020;28;20534;-74
2022/06/21 03:03:34;;;;;;;1.70;1.60;;;17.40;59.80;;;-142.21;84.82;112049.66;5068291;28;20437;-75
2022/06/21 03:06:08;;;;;;;2.20;1.50;;;17.40;59.20;;;-142.21;84.80;112049.66;5057816;28;20782;-74
2022/06/21 03:08:46;;;;;;;1.70;1.50;;;17.40;59.40;;;-142.21;84.57;112049.66;5027116;28;20458;-75
2022/06/21 03:11:13;;;;;;;2.67;1.80;;;17.50;59.30;;;-142.21;84.25;112049.66;5045044;28;20966;-75
2022/06/21 03:13:42;;;;;;;2.07;1.57;;;17.50;59.20;;;-142.21;84.56;112049.66;5065188;28;20480;-75
2022/06/21 03:16:18;;;;;;;3.03;1.47;;;17.50;59.50;;;-142.21;84.94;112049.66;5035131;28;20439;-75
2022/06/21 03:18:52;;;;;;;1.90;1.70;;;17.50;59.60;;;-142.21;85.07;112049.66;5059855;28;20467;-75
2022/06/21 03:21:27;;;;;;;1.53;1.40;;;17.50;59.60;;;-142.21;84.66;112049.66;5073648;28;20443;-75
2022/06/21 03:23:56;;;;;;;1.47;1.37;;;17.50;59.60;;;-142.21;84.75;112049.66;5064016;28;20432;-75
2022/06/21 03:26:26;;;;;;;2.20;1.53;;;17.50;59.50;;;-142.21;85.02;112049.66;5070592;28;20447;-75
2022/06/21 03:28:54;;;;;;;1.60;1.50;;;17.50;59.60;;;-142.21;85.11;112049.66;5072220;28;20453;-76
2022/06/21 03:31:31;;;;;;;2.87;1.23;;;17.60;59.50;;;-142.21;85.47;112049.66;5064864;28;20439;-75
2022/06/21 03:34:06;;;;;;;1.77;1.60;;;17.50;59.60;;;-142.21;85.71;112049.66;5063810;28;20470;-75
2022/06/21 03:36:34;;;;;;;3.03;1.50;;;17.50;59.60;;;-142.21;85.43;112049.66;5077984;28;20449;-75
2022/06/21 03:39:05;;;;;;;3.33;1.43;;;17.60;59.60;;;-142.21;85.29;112049.66;5054543;28;20447;-75
2022/06/21 03:41:44;;;;;;;1.87;1.70;;;17.60;59.70;;;-142.21;85.45;112049.66;5072370;28;20469;-76
2022/06/21 03:44:21;;;;;;;2.77;1.80;;;17.60;59.60;;;-142.21;85.83;112049.66;5058442;28;20466;-76
2022/06/21 03:47:01;;;;;;;2.67;1.80;;;17.60;59.70;;;-142.21;85.76;112049.66;5032908;28;20519;-75
2022/06/21 03:49:37;;;;;;;1.67;1.33;;;17.60;59.70;;;-142.21;85.85;112049.66;5067561;28;20521;-75
2022/06/21 03:52:10;;;;;;;1.67;1.40;;;17.60;59.70;;;-142.21;85.97;112049.66;5052639;28;20448;-75
2022/06/21 03:54:47;;;;;;;1.50;1.33;;;17.60;59.70;;;-142.21;86.05;112049.66;5062600;28;20475;-75
2022/06/21 03:57:21;;;;;;;1.70;1.60;;;17.60;59.70;;;-142.21;85.87;112049.66;5053115;28;20452;-75
2022/06/21 04:00:15;;;;;;;3.07;1.97;;;17.60;59.70;;;-142.21;86.16;112049.66;5068367;28;20443;-75
2022/06/21 04:02:55;;;;;;;2.20;1.70;;;17.60;59.70;;;-142.21;85.86;112049.66;5065498;28;20449;-75
2022/06/21 04:05:32;;;;;;;3.20;1.60;;;17.70;59.80;;;-142.21;85.54;112049.66;5056544;28;20447;-77
2022/06/21 04:08:11;;;;;;;2.33;2.10;;;17.70;59.70;;;-142.21;85.54;112049.66;5068285;28;20802;-75
2022/06/21 04:10:48;;;;;;;3.07;1.70;;;17.80;59.60;;;-142.21;86.23;112049.66;5022118;28;20444;-76
2022/06/21 04:13:25;;;;;;;3.07;2.23;;;17.80;59.80;;;-142.21;84.73;112049.66;5060851;28;20471;-75
2022/06/21 04:16:01;;;;;;;3.67;1.77;;;17.90;59.70;;;-142.21;85.54;112049.66;5057735;28;20523;-76
2022/06/21 04:18:40;;;;;;;6.07;2.37;;;17.90;59.90;;;-142.21;85.66;112049.66;5069766;28;20471;-75
2022/06/21 04:21:15;;;;;;;2.67;1.70;;;18.00;60.00;;;-142.21;85.40;112049.66;5066362;28;20528;-75
2022/06/21 04:23:50;;;;;;;2.13;1.50;;;18.10;59.60;;;-142.21;86.30;112049.66;5052699;28;20436;-75
2022/06/21 04:26:24;;;;;;;1.40;1.30;;;18.10;60.00;;;-142.21;87.05;112049.66;5058005;28;20442;-75
2022/06/21 04:29:02;;;;;;;2.57;1.63;;;18.20;60.20;;;-142.21;87.26;112049.66;5070442;28;20541;-75
2022/06/21 04:31:39;;;;;;;1.73;1.40;;;18.30;60.30;;;-142.21;86.55;112049.66;5072998;28;20431;-75
2022/06/21 04:34:20;;;;;;;4.30;2.00;;;18.30;59.90;;;-142.21;87.67;112049.66;5061243;28;20472;-75
2022/06/21 04:36:55;;;;;;;1.83;1.63;;;18.40;60.40;;;-142.21;87.17;112049.66;5062223;28;20451;-75
2022/06/21 04:39:32;;;;;;;2.00;1.70;;;18.40;60.00;;;-142.21;86.27;112049.66;5072350;28;20443;-75
2022/06/21 04:42:11;;;;;;;3.90;2.10;;;18.50;59.90;;;-142.21;85.46;112049.66;5058837;28;20476;-75
2022/06/21 04:44:48;;;;;;;4.13;1.93;;;18.60;59.50;;;-142.21;83.72;112049.66;5058908;28;20467;-75
2022/06/21 04:47:24;;;;;;;6.93;2.70;;;18.60;59.10;;;-142.21;85.11;112049.66;5066585;28;20450;-75
2022/06/21 04:50:02;;;;;;;5.87;2.27;;;18.70;59.30;;;-142.21;84.44;112049.66;5051403;28;20780;-75
2022/06/21 04:52:41;;;;;;;4.73;2.10;;;18.70;59.30;;;-142.21;84.09;112049.66;5043612;28;20443;-75
2022/06/21 04:55:16;;;;;;;4.10;2.13;;;18.70;58.90;;;-142.21;85.47;112049.66;5070134;28;20478;-75
2022/06/21 04:57:47;;;;;;;9.57;4.23;;;18.80;59.30;;;-142.21;87.95;112049.66;5070990;28;20758;-75
2022/06/21 05:00:20;;;;;;;7.20;3.17;;;18.80;60.20;;;-142.21;87.88;112049.66;5054155;28;20858;-75
2022/06/21 05:02:52;;;;;;;2.43;2.03;;;18.80;60.30;;;-142.21;87.57;112049.66;5062165;28;20439;-75
2022/06/21 05:05:27;;;;;;;1.90;1.40;;;18.90;60.10;;;-142.21;86.44;112049.66;5049637;28;20443;-75
2022/06/21 05:08:01;;;;;;;1.73;1.47;;;18.90;59.70;;;-142.21;85.28;112049.66;5053077;28;21010;-75
2022/06/21 05:10:34;;;;;;;1.47;1.37;;;19.00;59.40;;;-142.21;85.38;112049.66;5071987;28;20526;-75
2022/06/21 05:13:07;;;;;;;2.33;1.57;;;19.00;59.40;;;-142.21;85.30;112049.66;5057467;28;20454;-76
2022/06/21 05:15:39;;;;;;;1.60;1.50;;;19.10;59.10;;;-142.21;83.37;112049.66;5073018;28;20617;-76
2022/06/21 05:18:15;;;;;;;2.07;1.70;;;19.20;58.70;;;-142.21;83.42;112049.66;5073273;28;20639;-75
2022/06/21 05:20:51;;;;;;;2.27;1.90;;;19.30;58.60;;;-142.21;83.33;112049.66;5056543;28;20434;-75
2022/06/21 05:23:26;;;;;;;2.23;1.40;;;19.40;58.60;;;-142.21;84.18;112049.66;5074640;28;20441;-75
2022/06/21 05:26:01;;;;;;;1.93;1.43;;;19.50;58.80;;;-142.21;82.99;112049.66;5067075;28;20233;-76
2022/06/21 05:28:38;;;;;;;2.73;1.80;;;19.60;58.60;;;-142.21;81.88;112049.66;5058579;28;20901;-76
2022/06/21 05:31:16;;;;;;;3.93;1.90;;;19.70;58.20;;;-142.21;80.83;112049.66;5035378;28;20234;-76
2022/06/21 05:33:49;;;;;;;2.47;1.40;;;19.80;57.80;;;-142.21;79.15;112049.66;5060515;28;20219;-77
2022/06/21 05:36:24;;;;;;;1.60;1.50;;;19.90;57.20;;;-142.21;77.85;112049.66;5064332;28;20598;-76
2022/06/21 05:38:57;;;;;;;2.23;1.60;;;20.00;56.80;;;-142.21;74.89;112049.66;5069428;28;20442;-75
2022/06/21 05:41:36;;;;;;;2.37;1.70;;;20.10;56.10;;;-142.21;74.46;112049.66;5057940;28;20190;-75
2022/06/21 05:44:12;;;;;;;1.73;1.60;;;20.20;55.90;;;-142.21;75.13;112049.66;5058720;28;20213;-76
2022/06/21 05:46:47;;;;;;;1.93;1.30;;;20.30;56.00;;;-142.21;74.77;112049.66;5075582;28;20280;-74
2022/06/21 05:49:22;;;;;;;2.07;1.47;;;20.40;56.00;;;-142.21;71.92;112049.66;5071779;28;20458;-75
2022/06/21 05:51:56;;;;;;;3.53;1.57;;;20.50;55.20;;;-142.21;72.07;112049.66;5056927;28;20277;-75
2022/06/21 05:54:33;;;;;;;1.87;1.60;;;20.60;55.00;;;-142.21;71.63;112049.66;5075160;28;20215;-75
2022/06/21 05:57:03;;;;;;;2.07;1.80;;;20.70;54.90;;;-142.21;73.53;112049.66;5074633;28;20185;-75
2022/06/21 05:59:30;;;;;;;1.80;1.50;;;20.80;55.40;;;-142.21;71.83;112049.66;5067949;28;20205;-75
2022/06/21 06:02:07;;;;;;;3.53;2.23;;;20.90;54.70;;;-142.21;71.17;112049.66;5072022;28;20813;-76
2022/06/21 06:04:51;;;;;;;1.53;1.43;;;21.00;54.60;;;-142.21;69.04;112049.66;5075062;28;20198;-75
2022/06/21 06:07:28;;;;;;;2.30;1.60;;;21.10;54.30;;;-142.21;67.42;112049.66;5072904;28;20292;-75
2022/06/21 06:09:59;;;;;;;2.30;1.70;;;21.20;53.80;;;-142.21;67.87;112049.66;5072985;28;20194;-76
2022/06/21 06:12:32;;;;;;;3.13;1.73;;;21.30;53.70;;;-142.21;65.96;112049.66;5072303;28;20276;-75
2022/06/21 06:15:07;;;;;;;1.90;1.60;;;21.40;53.40;;;-142.21;66.26;112049.66;5073818;28;20296;-75
2022/06/21 06:17:44;;;;;;;2.47;1.33;;;21.40;53.20;;;-142.21;64.39;112049.66;5058282;28;20276;-75
2022/06/21 06:20:27;;;;;;;2.77;1.77;;;21.50;52.80;;;-142.21;65.60;112049.66;5054092;28;20196;-75
2022/06/21 06:23:01;;;;;;;2.20;2.00;;;21.50;53.50;;;-142.21;64.57;112049.66;5054831;28;20200;-75
2022/06/21 06:25:36;;;;;;;2.33;1.33;;;21.60;52.70;;;-142.21;62.79;112049.66;5055835;28;20239;-75
2022/06/21 06:28:20;;;;;;;3.33;1.70;;;21.60;52.50;;;-142.21;65.55;112049.66;5033960;28;20192;-75
2022/06/21 06:31:01;;;;;;;3.00;1.60;;;21.70;53.70;;;-142.21;65.68;112049.66;5056303;28;20273;-75
2022/06/21 06:33:36;;;;;;;2.00;1.63;;;21.80;53.20;;;-142.21;62.69;112049.66;5063794;28;20239;-78
2022/06/21 06:36:08;;;;;;;2.67;1.50;;;21.80;52.50;;;-142.21;64.63;112049.66;5034947;28;20624;-75
2022/06/21 06:38:40;;;;;;;3.07;2.27;;;21.90;52.60;;;-142.21;62.44;112049.66;5054353;28;20210;-78
2022/06/21 06:41:15;;;;;;;2.23;2.03;;;22.00;52.20;;;-142.21;60.90;112049.66;5052756;28;20190;-78
2022/06/21 06:43:52;;;;;;;4.20;1.60;;;22.20;52.00;;;-142.21;61.55;112049.66;5053941;28;20311;-75
2022/06/21 06:46:29;;;;;;;4.37;1.90;;;22.30;51.80;;;-142.21;59.92;112049.66;5067254;28;20243;-74
2022/06/21 06:49:08;;;;;;;4.10;1.60;;;22.40;51.50;;;-142.21;60.58;112049.66;5060530;28;20213;-73
2022/06/21 06:51:51;;;;;;;3.30;1.90;;;22.50;51.70;;;-142.21;60.48;112049.66;5053094;28;20241;-74
2022/06/21 06:54:35;;;;;;;4.07;1.83;;;22.60;51.20;;;-142.21;60.98;112049.66;5046752;28;20222;-73
2022/06/21 06:57:19;;;;;;;3.40;1.60;;;22.70;51.40;;;-142.21;61.63;112049.66;5049107;28;20718;-73
2022/06/21 06:59:48;;;;;;;3.50;1.77;;;22.90;51.80;;;-142.21;58.84;112049.66;5063908;28;20240;-72
2022/06/21 07:02:25;;;;;;;7.73;2.20;;;23.00;51.10;;;-142.21;58.11;112049.66;5062661;28;20304;-72
2022/06/21 07:05:05;;;;;;;1.50;1.40;;;23.10;50.80;;;-142.21;54.93;112049.66;5058760;28;20189;-72
2022/06/21 07:07:46;;;;;;;1.93;1.70;;;23.20;49.90;;;-142.21;56.59;112049.66;5057454;28;20197;-72
2022/06/21 07:10:21;;;;;;;2.67;1.80;;;23.20;50.30;;;-142.21;57.91;112049.66;5029322;28;20278;-72
2022/06/21 07:12:53;;;;;;;3.00;1.50;;;23.20;50.60;;;-142.21;58.29;112049.66;5049956;28;20255;-73
2022/06/21 07:15:32;;;;;;;2.87;1.77;;;23.30;50.70;;;-142.21;56.63;112049.66;5052620;28;20219;-72
2022/06/21 07:17:59;;;;;;;2.43;1.67;;;23.40;50.40;;;-142.21;56.59;112049.66;5053223;28;20589;-73
2022/06/21 07:20:35;;;;;;;3.63;1.63;;;23.50;50.20;;;-142.21;56.73;112049.66;5069663;28;20246;-72
2022/06/21 07:23:02;;;;;;;4.33;1.60;;;23.50;50.30;;;-142.21;54.86;112049.66;5041693;28;20189;-73
2022/06/21 07:25:39;;;;;;;2.30;1.97;;;23.50;49.80;;;-142.21;55.58;112049.66;5053507;28;20221;-72
2022/06/21 07:28:20;;;;;;;2.13;1.83;;;23.60;49.80;;;-142.21;54.23;112049.66;4999976;28;20278;-73
2022/06/21 07:30:54;;;;;;;2.33;1.33;;;23.60;49.40;;;-142.21;53.69;112049.66;5052967;28;20234;-73
2022/06/21 07:33:30;;;;;;;2.43;1.67;;;23.60;49.20;;;-142.21;54.48;112049.66;5051926;28;20223;-73
2022/06/21 07:36:05;;;;;;;4.00;1.80;;;23.70;49.50;;;-142.21;54.24;112049.66;5053357;28;20217;-72
2022/06/21 07:38:40;;;;;;;2.10;1.47;;;23.70;49.40;;;-142.21;54.38;112049.66;5052974;28;20630;-72
2022/06/21 07:41:20;;;;;;;2.63;1.87;;;23.80;49.40;;;-142.21;56.11;112049.66;5053706;28;20219;-72
2022/06/21 07:43:57;;;;;;;4.20;1.60;;;23.80;50.00;;;-142.21;55.07;112049.66;5052674;28;20247;-72
2022/06/21 07:46:33;;;;;;;2.47;1.97;;;23.90;49.80;;;-142.21;53.43;112049.66;5055842;28;20188;-73
2022/06/21 07:49:15;;;;;;;3.37;2.20;;;23.90;49.30;;;-142.21;54.55;112049.66;5072534;28;20538;-72
2022/06/21 07:51:47;;;;;;;2.63;2.00;;;24.00;49.50;;;-142.21;50.95;112049.66;5069157;28;20283;-72
2022/06/21 07:54:22;;;;;;;4.60;1.90;;;24.10;48.50;;;-142.21;51.34;112049.66;5062154;28;20285;-73
2022/06/21 07:56:55;;;;;;;3.67;1.70;;;24.20;48.20;;;-142.21;50.51;112049.66;5052787;28;20194;-71
2022/06/21 07:59:27;;;;;;;3.37;1.80;;;24.30;48.20;;;-142.21;51.40;112049.66;5052152;28;20272;-73
2022/06/21 08:07:47;;;;;;;2.40;2.00;;;24.70;48.30;;;-142.21;51.69;112049.66;5052848;28;20211;-73
2022/06/21 08:10:24;;;;;;;2.07;1.87;;;24.90;48.80;;;-142.21;49.95;112049.66;5052133;28;20210;-73
2022/06/21 08:12:56;;;;;;;3.17;1.90;;;25.00;47.90;;;-142.21;49.96;112049.66;5052634;28;20236;-72
2022/06/21 08:15:31;;;;;;;2.83;1.80;;;25.20;47.90;;;-142.21;49.69;112049.66;5053256;28;20241;-72
2022/06/21 08:18:06;;;;;;;2.20;1.80;;;25.30;47.70;;;-142.21;49.91;112049.66;5052650;28;20196;-71
2022/06/21 08:20:42;;;;;;;2.23;1.90;;;25.50;47.90;;;-142.21;50.05;112049.66;5052556;28;20634;-72
2022/06/21 08:23:18;;;;;;;2.17;1.80;;;25.60;47.80;;;-142.21;48.79;112049.66;5051921;28;20201;-72
2022/06/21 08:25:57;;;;;;;2.40;1.87;;;25.70;47.50;;;-142.21;50.33;112049.66;5052439;28;20646;-73
2022/06/21 08:28:37;;;;;;;6.70;2.00;;;25.80;47.90;;;-142.21;49.29;112049.66;5051891;28;20190;-72
2022/06/21 08:31:12;;;;;;;3.67;1.90;;;25.80;47.60;;;-142.21;50.51;112049.66;5051525;28;20245;-71
2022/06/21 08:33:52;;;;;;;3.30;2.03;;;25.80;47.90;;;-142.21;50.20;112049.66;5051474;28;20193;-73
2022/06/21 08:36:30;;;;;;;1.87;1.60;;;25.70;47.70;;;-142.21;50.51;112049.66;5050913;28;20541;-71
2022/06/21 08:39:03;;;;;;;3.67;2.23;;;25.70;47.80;;;-142.21;50.81;112049.66;5050647;28;20276;-72
2022/06/21 08:42:28;;;;;;;3.30;1.97;;;25.70;47.90;;;-142.21;52.39;112049.66;5032014;28;20190;-73
2022/06/21 08:46:11;;;;;;;3.00;1.80;;;25.70;48.30;;;-142.21;52.31;112049.66;5022051;28;20261;-72
2022/06/21 08:49:35;;;;;;;2.93;1.93;;;25.80;48.60;;;-142.21;51.06;112049.66;5003448;28;20214;-73
2022/06/21 08:52:41;;;;;;;2.13;1.70;;;25.70;48.50;;;-142.21;53.12;112049.66;5050218;28;20206;-72
2022/06/21 08:55:24;;;;;;;2.40;1.80;;;25.80;48.70;;;-142.21;51.70;112049.66;5032578;28;20872;-72
2022/06/21 08:58:14;;;;;;;2.97;2.10;;;25.80;48.10;;;-142.21;52.23;112049.66;5075873;28;20325;-72
2022/06/21 09:00:50;;;;;;;2.87;2.10;;;25.80;48.30;;;-142.21;51.45;112049.66;5073286;28;20195;-73
2022/06/21 09:03:51;;;;;;;3.07;1.70;;;25.80;48.10;;;-142.21;50.78;112049.66;5075009;28;20216;-72
2022/06/21 09:06:33;;;;;;;2.73;1.97;;;25.80;48.00;;;-142.21;50.99;112049.66;5069365;28;20284;-72
2022/06/21 09:09:42;;;;;;;3.07;2.10;;;25.90;48.00;;;-142.21;50.14;112049.66;5054231;28;20228;-72
2022/06/21 09:12:22;;;;;;;3.70;1.80;;;26.00;47.70;;;-142.21;49.06;112049.66;5056264;28;20233;-72
2022/06/21 09:15:34;;;;;;;2.00;1.80;;;26.10;47.30;;;-142.21;49.27;112049.66;5055734;28;20296;-72
2022/06/21 09:18:22;;;;;;;3.40;1.73;;;26.30;47.50;;;-142.21;50.08;112049.66;5035890;28;20194;-72
2022/06/21 09:21:04;;;;;;;2.93;1.90;;;26.40;47.70;;;-142.21;46.41;112049.66;5034344;28;20205;-74
2022/06/21 09:23:59;;;;;;;3.77;2.00;;;26.50;46.50;;;-142.21;46.45;112049.66;5075783;28;20633;-72
2022/06/21 09:26:41;;;;;;;3.87;1.97;;;26.50;46.00;;;-142.21;45.35;112049.66;5052303;28;20654;-73
2022/06/21 09:29:27;;;;;;;8.70;2.07;;;26.50;45.60;;;-142.21;46.33;112049.66;5055683;28;20326;-73
2022/06/21 09:32:17;;;;;;;5.20;2.20;;;26.60;46.30;;;-142.21;47.42;112049.66;5075205;28;20194;-72
2022/06/21 09:35:03;;;;;;;1.87;1.70;;;26.70;46.60;;;-142.21;46.57;112049.66;5074621;28;20189;-72
2022/06/21 09:37:50;;;;;;;2.63;1.60;;;26.80;46.10;;;-142.21;46.20;112049.66;5075696;28;20204;-71
2022/06/21 09:40:27;;;;;;;3.00;1.90;;;26.90;46.00;;;-142.21;46.88;112049.66;5037859;28;20812;-72
2022/06/21 09:43:15;;;;;;;4.87;2.13;;;27.10;46.40;;;-142.21;47.26;112049.66;5036610;28;20686;-73
2022/06/21 09:45:58;;;;;;;3.50;1.80;;;27.20;46.50;;;-142.21;45.11;112049.66;5055181;28;20608;-72
2022/06/21 09:48:36;;;;;;;4.60;2.40;;;27.30;45.70;;;-142.21;45.04;112049.66;5055896;28;20222;-72
2022/06/21 09:51:17;;;;;;;4.33;2.20;;;27.50;45.80;;;-142.21;43.77;112049.66;5055031;28;20671;-73
2022/06/21 09:54:10;;;;;;;6.57;1.97;;;27.60;44.80;;;-142.21;42.43;112049.66;5063880;28;20197;-72
2022/06/21 09:56:45;;;;;;;2.40;1.90;;;27.60;44.50;;;-142.21;43.56;112049.66;5074849;28;20669;-72
2022/06/21 09:59:24;;;;;;;3.93;2.23;;;27.70;45.00;;;-142.21;43.31;112049.66;5072476;28;20204;-73
2022/06/21 10:02:05;;;;;;;2.27;1.80;;;27.70;44.10;;;-142.21;44.65;112049.66;5072410;28;20678;-72
2022/06/21 10:04:51;;;;;;;4.70;2.17;;;27.90;45.00;;;-142.21;44.67;112049.66;5054391;28;20274;-73
2022/06/21 10:07:37;;;;;;;3.27;2.20;;;28.00;45.30;;;-142.21;44.34;112049.66;5054386;28;20204;-73
2022/06/21 10:10:27;;;;;;;2.40;1.97;;;28.10;44.90;;;-142.21;44.33;112049.66;5054024;28;20254;-73
2022/06/21 10:13:16;;;;;;;3.17;2.30;;;28.20;45.10;;;-142.21;42.65;112049.66;5058005;28;20230;-72
2022/06/21 10:15:58;;;;;;;2.50;1.97;;;28.30;44.30;;;-142.21;42.08;112049.66;5054625;28;20218;-72
2022/06/21 10:19:07;;;;;;;3.20;2.00;;;28.30;43.60;;;-142.21;42.79;112049.66;5053889;28;20821;-72
2022/06/21 10:22:03;;;;;;;5.53;2.43;;;28.50;44.00;;;-142.21;42.93;112049.66;5054807;28;20201;-72
2022/06/21 10:24:58;;;;;;;2.43;2.00;;;28.50;44.10;;;-142.21;41.96;112049.66;5058424;28;20658;-72
2022/06/21 10:27:49;;;;;;;3.07;1.90;;;28.60;43.50;;;-142.21;42.26;112049.66;5033676;28;20321;-73
2022/06/21 10:30:49;;;;;;;4.40;2.30;;;28.70;43.70;;;-142.21;42.50;112049.66;5061068;28;20395;-72
2022/06/21 10:33:47;;;;;;;3.87;2.27;;;28.80;43.90;;;-142.21;41.17;112049.66;5073945;28;20281;-73
2022/06/21 10:36:42;;;;;;;3.60;2.33;;;28.90;43.10;;;-142.21;42.27;112049.66;5072762;28;20544;-73
2022/06/21 10:39:30;;;;;;;3.90;2.10;;;28.90;43.70;;;-142.21;40.44;112049.66;5038747;28;20295;-73
2022/06/21 10:45:38;;;;;;;2.23;2.03;;;29.00;43.60;;;-142.21;42.14;112049.66;5053526;28;20187;-73
2022/06/21 10:49:08;;;;;;;3.47;2.30;;;29.20;43.30;;;-142.21;41.61;112049.66;5054170;28;20279;-72
2022/06/21 10:51:59;;;;;;;2.20;2.00;;;29.30;42.70;;;-142.21;41.49;112049.66;5048041;28;20589;-73
2022/06/21 10:54:55;;;;;;;4.63;2.20;;;29.30;43.20;;;-142.21;42.21;112049.66;5053266;28;20204;-73